Tropical Cyclones
[Index]
Main Index Home Page Stock Weather Photos Extreme Storms Discussion Storm News and Storm Chasing Reports Tropical Cyclones / Hurricanes / Typhoons Weather Data and Links Wild Fires / Bushfires Weather Observation Techniques Weather Picture Catalogue Tornado Pictures and Reports Stock Video Footage and DVDs for sale
Season 1986-1987 Tropical Cyclone 198726 Track Map
Season 1986-1987 Summaries: [BoM-AU] [JTWC-AU] [JTWC-SIO] [JTWC-SPAC] [JTWC-SH]
<<- Previous TC | JTWC 1986-1987 Season | Next TC ->>

click for intensity scale information  Lat/long Grid: Show Hide

 Date Labels: Show Hide

Joint Typhoon Warning Centre Cyclone Data

Name: 198726

20 Apr 1987 00:00 UTC to 26 Apr 1987 12:00 UTC

    date/time    lat    long     hPa   cat  kts
1987-04-20 00    7.3    73.2                  20          
1987-04-20 06    8.0    72.0                  25          
1987-04-20 12    9.0    71.3                  25          
1987-04-20 18   10.1    71.2                  25          
1987-04-21 00   11.0    71.2                  25          
1987-04-21 06   11.8    71.3                  25          
1987-04-21 12   12.3    71.4                  25          
1987-04-21 18   12.6    71.5                  25          
1987-04-22 00   12.9    71.6                  25          
1987-04-22 06   13.2    71.7                  25          
1987-04-22 12   13.4    71.8                  25          
1987-04-22 18   13.7    72.0                  25          
1987-04-23 00   13.9    72.1                  25          
1987-04-23 06   14.1    72.3                  25          
1987-04-23 12   14.3    72.6                  25          
1987-04-23 18   14.6    72.9                  25          
1987-04-24 00   14.7    73.3                  30          
1987-04-24 06   14.9    73.7                  35          
1987-04-24 12   15.0    74.2            1     40          
1987-04-24 18   14.9    74.7            1     40          
1987-04-25 00   14.6    74.9            1     40          
1987-04-25 06   14.3    74.9            1     45          
1987-04-25 12   13.9    74.8            1     45          
1987-04-25 18   13.6    74.7            1     45          
1987-04-26 00   13.3    74.4                  35          
1987-04-26 06   13.1    74.2                  30          
1987-04-26 12   12.9    73.9                  25          
Winds are 1-min average.

Tropical cyclone tracks developed by Michael Bath using data from the Joint Typhoon Warning Centre Best Tracks and Google Maps.


[Australian Severe Weather index] [Copyright Notice] [Email Contacts] [Search This Site] [Privacy Policy]
Document: tropical_cyclone_198726.htm Updated: 18 September 2016